Time;durP1;ratioP1;P1;durP2;ratioP2;P2;SDS_P1;SDS_P2;PMS_P1;PMS_P2;Temp;Humidity;BMP_temperature;BMP_pressure;BME280_temperature;BME280_humidity;BME280_pressure;Samples;Min_cycle;Max_cycle;Signal;HPM_P1;HPM_P2
2023/05/23 00:01:18;;;;;;;;;;;;;;;22.92;51.50;100710.00;4997787;28;4155;-76
2023/05/23 00:03:46;;;;;;;;;;;;;;;22.92;51.37;100704.22;4999635;28;3961;-77
2023/05/23 00:06:13;;;;;;;;;;;;;;;22.92;51.60;100707.13;5002608;28;4001;-77
2023/05/23 00:08:40;;;;;;;;;;;;;;;22.91;51.72;100708.53;5004850;28;4231;-77
2023/05/23 00:11:06;;;;;;;;;;;;;;;22.91;51.67;100708.53;5002871;28;4297;-77
2023/05/23 00:13:33;;;;;;;;;;;;;;;22.91;51.73;100708.53;5001167;28;4202;-77
2023/05/23 00:16:01;;;;;;;;;;;;;;;22.90;51.48;100701.28;5002245;28;4503;-77
2023/05/23 00:18:27;;;;;;;;;;;;;;;22.91;51.47;100690.50;5005721;28;3974;-76
2023/05/23 00:20:56;;;;;;;;;;;;;;;22.90;51.74;100689.72;5004210;28;4131;-76
2023/05/23 00:23:24;;;;;;;;;;;;;;;22.89;51.63;100694.03;5005668;28;4133;-75
2023/05/23 00:25:51;;;;;;;;;;;;;;;22.89;51.59;100694.03;5006472;28;4045;-76
2023/05/23 00:28:18;;;;;;;;;;;;;;;22.89;51.87;100694.03;5005698;28;4208;-75
2023/05/23 00:30:45;;;;;;;;;;;;;;;22.89;51.66;100682.47;5002712;28;4144;-75
2023/05/23 00:33:13;;;;;;;;;;;;;;;22.89;51.83;100687.53;5004875;28;4193;-76
2023/05/23 00:35:40;;;;;;;;;;;;;;;22.88;51.79;100689.66;5006821;28;4115;-78
2023/05/23 00:38:07;;;;;;;;;;;;;;;22.89;51.67;100694.03;5008779;28;4062;-77
2023/05/23 00:40:34;;;;;;;;;;;;;;;22.88;51.81;100692.53;5011415;28;4005;-75
2023/05/23 00:43:00;;;;;;;;;;;;;;;22.87;51.72;100685.31;5005364;28;4061;-77
2023/05/23 00:45:27;;;;;;;;;;;;;;;22.87;51.76;100685.31;5001138;28;4227;-76
2023/05/23 00:47:53;;;;;;;;;;;;;;;22.87;51.70;100685.31;5002275;28;4156;-77
2023/05/23 00:50:20;;;;;;;;;;;;;;;22.87;51.98;100678.78;5012047;28;4250;-77
2023/05/23 00:52:46;;;;;;;;;;;;;;;22.87;51.96;100676.63;4987740;28;4081;-77
2023/05/23 00:55:13;;;;;;;;;;;;;;;22.87;51.66;100673.75;5010487;28;4096;-78
2023/05/23 00:57:43;;;;;;;;;;;;;;;22.86;51.63;100675.19;5008919;28;4032;-78
2023/05/23 01:00:14;;;;;;;;;;;;;;;22.86;51.79;100678.06;4992566;28;4048;-78
2023/05/23 01:02:44;;;;;;;;;;;;;;;22.86;51.72;100686.72;5007555;28;4097;-77
2023/05/23 01:05:13;;;;;;;;;;;;;;;22.85;52.00;100685.22;5004610;28;6282;-76
2023/05/23 01:07:40;;;;;;;;;;;;;;;22.85;51.78;100688.13;5007371;28;5139;-77
2023/05/23 01:10:07;;;;;;;;;;;;;;;22.84;51.88;100686.66;5007717;28;4361;-77
2023/05/23 01:12:39;;;;;;;;;;;;;;;22.86;51.66;100688.84;5001621;28;4371;-76
2023/05/23 01:15:09;;;;;;;;;;;;;;;22.84;51.90;100683.75;4998304;28;4511;-76
2023/05/23 01:17:36;;;;;;;;;;;;;;;22.84;51.89;100680.88;5006134;28;4578;-77
2023/05/23 01:20:08;;;;;;;;;;;;;;;22.83;51.59;100682.28;5004696;28;4044;-77
2023/05/23 01:22:43;;;;;;;;;;;;;;;22.83;51.59;100667.84;5013986;28;3925;-76
2023/05/23 01:25:10;;;;;;;;;;;;;;;22.83;51.67;100667.84;4996537;28;6572;-77
2023/05/23 01:27:47;;;;;;;;;;;;;;;22.84;51.78;100672.22;5003076;28;4553;-76
2023/05/23 01:30:14;;;;;;;;;;;;;;;22.83;51.85;100670.72;4999425;28;3994;-77
2023/05/23 01:32:40;;;;;;;;;;;;;;;22.82;51.75;100669.25;4996318;28;4213;-77
2023/05/23 01:35:07;;;;;;;;;;;;;;;22.82;51.74;100660.59;4999781;28;5181;-77
2023/05/23 01:37:34;;;;;;;;;;;;;;;22.83;51.60;100661.34;5004754;28;4069;-76
2023/05/23 01:40:01;;;;;;;;;;;;;;;22.82;51.88;100659.88;5008635;28;4554;-77
2023/05/23 01:42:28;;;;;;;;;;;;;;;22.82;51.71;100656.97;5008629;28;4175;-77
2023/05/23 01:44:58;;;;;;;;;;;;;;;22.82;51.86;100660.59;5008908;28;4299;-77
2023/05/23 01:47:24;;;;;;;;;;;;;;;22.82;51.89;100662.75;5008423;28;4064;-77
2023/05/23 01:49:51;;;;;;;;;;;;;;;22.80;51.65;100658.38;5013271;28;4908;-77
2023/05/23 01:52:17;;;;;;;;;;;;;;;22.82;51.72;100669.25;5005054;28;4081;-77
2023/05/23 01:54:43;;;;;;;;;;;;;;;22.81;52.06;100676.44;5007647;28;4249;-77
2023/05/23 01:57:11;;;;;;;;;;;;;;;22.80;51.74;100681.47;4981960;28;4106;-77
2023/05/23 01:59:37;;;;;;;;;;;;;;;22.81;52.04;100687.97;4992753;28;4177;-77
2023/05/23 02:02:04;;;;;;;;;;;;;;;22.80;51.61;100683.63;5017436;28;4159;-77
2023/05/23 02:04:31;;;;;;;;;;;;;;;22.79;51.79;100668.47;4995895;28;4299;-77
2023/05/23 02:06:57;;;;;;;;;;;;;;;22.78;51.81;100661.19;5005817;28;4182;-76
2023/05/23 02:09:24;;;;;;;;;;;;;;;22.78;51.76;100677.78;5022837;28;4066;-76
2023/05/23 02:11:50;;;;;;;;;;;;;;;22.79;51.79;100677.13;5003374;28;4036;-75
2023/05/23 02:14:17;;;;;;;;;;;;;;;22.79;52.04;100667.69;5003522;28;4111;-77
2023/05/23 02:16:44;;;;;;;;;;;;;;;22.78;51.88;100663.34;5021530;28;4108;-77
2023/05/23 02:19:11;;;;;;;;;;;;;;;22.78;52.05;100649.66;5006408;28;6210;-77
2023/05/23 02:21:37;;;;;;;;;;;;;;;22.77;51.84;100653.94;5003451;28;3968;-76
2023/05/23 02:24:04;;;;;;;;;;;;;;;22.77;51.76;100656.84;5005413;28;4349;-76
2023/05/23 02:26:30;;;;;;;;;;;;;;;22.78;51.84;100660.47;5018338;28;4069;-76
2023/05/23 02:28:56;;;;;;;;;;;;;;;22.76;51.97;100655.34;5004463;28;4154;-76
2023/05/23 02:31:23;;;;;;;;;;;;;;;22.77;51.99;100665.50;5001627;28;4449;-76
2023/05/23 02:33:49;;;;;;;;;;;;;;;22.77;51.82;100653.22;5002683;28;4412;-75
2023/05/23 02:36:16;;;;;;;;;;;;;;;22.77;51.82;100644.56;5005708;28;3965;-76
2023/05/23 02:38:42;;;;;;;;;;;;;;;22.76;51.98;100652.47;5003590;28;4344;-76
2023/05/23 02:41:09;;;;;;;;;;;;;;;22.74;51.75;100649.50;5008640;28;4038;-76
2023/05/23 02:43:36;;;;;;;;;;;;;;;22.76;51.86;100645.97;5003702;28;4491;-76
2023/05/23 02:46:03;;;;;;;;;;;;;;;22.75;51.76;100650.25;4995382;28;4535;-76
2023/05/23 02:48:31;;;;;;;;;;;;;;;22.75;51.80;100648.13;5012169;28;4046;-77
2023/05/23 02:50:57;;;;;;;;;;;;;;;22.74;51.83;100643.72;5013332;28;4197;-76
2023/05/23 02:53:24;;;;;;;;;;;;;;;22.75;51.94;100647.38;5009525;28;4115;-76
2023/05/23 02:55:51;;;;;;;;;;;;;;;22.74;51.81;100651.66;5008460;28;4322;-76
2023/05/23 02:58:17;;;;;;;;;;;;;;;22.73;52.11;100653.81;5001692;28;4224;-78
2023/05/23 03:00:44;;;;;;;;;;;;;;;22.74;52.12;100648.78;5002070;28;4667;-77
2023/05/23 03:03:11;;;;;;;;;;;;;;;22.73;52.09;100647.31;4996437;28;4045;-76
2023/05/23 03:05:38;;;;;;;;;;;;;;;22.74;51.95;100648.78;5009738;28;3989;-76
2023/05/23 03:08:05;;;;;;;;;;;;;;;22.73;51.85;100638.66;5003155;28;4046;-77
2023/05/23 03:10:32;;;;;;;;;;;;;;;22.73;51.99;100641.53;5034782;28;4296;-76
2023/05/23 03:12:59;;;;;;;;;;;;;;;22.73;52.17;100641.53;5001582;28;4317;-76
2023/05/23 03:15:25;;;;;;;;;;;;;;;22.72;52.03;100640.03;5002726;28;4193;-76
2023/05/23 03:17:52;;;;;;;;;;;;;;;22.72;51.85;100637.16;4999780;28;4805;-76
2023/05/23 03:20:19;;;;;;;;;;;;;;;22.71;52.11;100633.53;4994694;28;4039;-77
2023/05/23 03:22:45;;;;;;;;;;;;;;;22.71;51.83;100632.81;5000383;28;4491;-77
2023/05/23 03:25:13;;;;;;;;;;;;;;;22.71;52.01;100627.03;5004196;28;4548;-77
2023/05/23 03:27:40;;;;;;;;;;;;;;;22.71;51.81;100627.03;5003584;28;3941;-77
2023/05/23 03:30:06;;;;;;;;;;;;;;;22.70;52.05;100619.75;5004114;28;4175;-76
2023/05/23 03:32:33;;;;;;;;;;;;;;;22.71;52.06;100618.38;5005599;28;4204;-77
2023/05/23 03:35:00;;;;;;;;;;;;;;;22.70;51.89;100628.44;4995264;28;4171;-77
2023/05/23 03:37:26;;;;;;;;;;;;;;;22.69;52.32;100624.06;5010698;28;4045;-76
2023/05/23 03:39:53;;;;;;;;;;;;;;;22.70;52.05;100625.53;5004175;28;4213;-76
2023/05/23 03:42:19;;;;;;;;;;;;;;;22.69;52.11;100626.97;5004031;28;4344;-78
2023/05/23 03:44:46;;;;;;;;;;;;;;;22.69;51.81;100632.72;5010238;28;4127;-77
2023/05/23 03:47:12;;;;;;;;;;;;;;;22.69;51.98;100635.63;5002860;28;4249;-78
2023/05/23 03:49:41;;;;;;;;;;;;;;;22.69;52.00;100639.25;5023987;28;4921;-77
2023/05/23 03:52:08;;;;;;;;;;;;;;;22.69;51.73;100638.50;5012208;28;4530;-78
2023/05/23 03:54:34;;;;;;;;;;;;;;;22.68;51.89;100634.16;5002437;28;4041;-77
2023/05/23 03:57:01;;;;;;;;;;;;;;;22.68;51.91;100628.38;5010894;28;4030;-77
2023/05/23 03:59:28;;;;;;;;;;;;;;;22.66;51.94;100626.16;5009590;28;4019;-77
2023/05/23 04:01:57;;;;;;;;;;;;;;;22.67;51.91;100629.78;5013255;28;4124;-77
2023/05/23 04:04:25;;;;;;;;;;;;;;;22.67;52.34;100629.78;5001942;28;4072;-77
2023/05/23 04:06:51;;;;;;;;;;;;;;;22.67;52.14;100621.84;5005818;28;4391;-76
2023/05/23 04:09:18;;;;;;;;;;;;;;;22.67;52.25;100626.91;5017697;28;4215;-77
2023/05/23 04:11:46;;;;;;;;;;;;;;;22.66;52.05;100631.19;5009560;28;4032;-76
2023/05/23 04:14:13;;;;;;;;;;;;;;;22.65;52.07;100630.44;5003600;28;5838;-78
2023/05/23 04:16:40;;;;;;;;;;;;;;;22.66;52.14;100639.84;5009832;28;4270;-77
2023/05/23 04:19:08;;;;;;;;;;;;;;;22.65;52.02;100636.22;4999439;28;3898;-78
2023/05/23 04:21:34;;;;;;;;;;;;;;;22.66;52.13;100631.19;5010147;28;4122;-77
2023/05/23 04:24:07;;;;;;;;;;;;;;;22.65;52.34;100627.56;4998611;28;4598;-76
2023/05/23 04:26:35;;;;;;;;;;;;;;;22.65;52.13;100629.72;5009923;28;4217;-76
2023/05/23 04:29:03;;;;;;;;;;;;;;;22.64;52.16;100639.78;5002669;28;4398;-77
2023/05/23 04:31:30;;;;;;;;;;;;;;;22.64;52.11;100639.78;4996650;28;4162;-76
2023/05/23 04:33:57;;;;;;;;;;;;;;;22.64;52.06;100636.91;5004585;28;4144;-76
2023/05/23 04:36:24;;;;;;;;;;;;;;;22.65;52.22;100635.47;5008102;28;3985;-70
2023/05/23 04:38:53;;;;;;;;;;;;;;;22.64;52.07;100639.78;5012731;28;4058;-69
2023/05/23 04:41:22;;;;;;;;;;;;;;;22.63;52.24;100639.06;5004974;28;4019;-70
2023/05/23 04:44:04;;;;;;;;;;;;;;;22.64;52.28;100636.91;5003073;28;4202;-70
2023/05/23 04:46:44;;;;;;;;;;;;;;;22.64;52.15;100645.56;5006451;28;3977;-69
2023/05/23 04:49:15;;;;;;;;;;;;;;;22.63;52.24;100644.06;4999728;28;4213;-70
2023/05/23 04:51:42;;;;;;;;;;;;;;;22.62;52.29;100643.34;5003127;28;4411;-70
2023/05/23 04:54:19;;;;;;;;;;;;;;;22.62;52.26;100645.50;5029918;28;4052;-69
2023/05/23 04:56:45;;;;;;;;;;;;;;;22.49;51.88;100647.94;4999462;28;4520;-70
2023/05/23 04:59:13;;;;;;;;;;;;;;;22.56;51.95;100646.78;4995850;28;4406;-68
2023/05/23 05:01:40;;;;;;;;;;;;;;;22.62;51.58;100649.09;5015433;28;4125;-68
2023/05/23 05:04:07;;;;;;;;;;;;;;;22.59;51.80;100639.66;5011319;28;4018;-68
2023/05/23 05:06:34;;;;;;;;;;;;;;;22.61;51.52;100635.34;5013297;28;3980;-68
2023/05/23 05:09:00;;;;;;;;;;;;;;;22.62;51.81;100642.59;5011893;28;4092;-67
2023/05/23 05:11:27;;;;;;;;;;;;;;;22.62;51.65;100648.38;5011896;28;4185;-67
2023/05/23 05:13:54;;;;;;;;;;;;;;;22.61;51.66;100641.09;5000978;28;4104;-68
2023/05/23 05:16:20;;;;;;;;;;;;;;;22.62;52.16;100648.38;5012554;28;4152;-68
2023/05/23 05:18:48;;;;;;;;;;;;;;;22.61;51.89;100646.88;5006633;28;4566;-67
2023/05/23 05:21:15;;;;;;;;;;;;;;;22.60;52.02;100646.16;5006949;28;3927;-67
2023/05/23 05:23:42;;;;;;;;;;;;;;;22.61;52.17;100653.41;5006551;28;4888;-68
2023/05/23 05:26:08;;;;;;;;;;;;;;;22.61;51.95;100655.53;5010054;28;4580;-68
2023/05/23 05:28:37;;;;;;;;;;;;;;;22.61;52.03;100652.66;5013060;28;4513;-68
2023/05/23 05:31:03;;;;;;;;;;;;;;;22.61;52.01;100646.88;5005746;28;3976;-68
2023/05/23 05:33:36;;;;;;;;;;;;;;;22.59;51.97;100636.03;4996871;28;4352;-68
2023/05/23 05:36:11;;;;;;;;;;;;;;;22.60;52.27;100640.38;5013178;28;5098;-68
2023/05/23 05:38:38;;;;;;;;;;;;;;;22.59;51.98;100639.66;5006860;28;4445;-68
2023/05/23 05:41:05;;;;;;;;;;;;;;;22.58;51.94;100641.03;5006396;28;4137;-67
2023/05/23 05:43:37;;;;;;;;;;;;;;;22.59;52.17;100638.91;4996248;28;4027;-68
2023/05/23 05:46:04;;;;;;;;;;;;;;;22.58;52.30;100641.03;5007855;28;4295;-67
2023/05/23 05:48:31;;;;;;;;;;;;;;;22.58;52.11;100641.03;5023056;28;4168;-68
2023/05/23 05:51:02;;;;;;;;;;;;;;;22.58;52.13;100638.16;5008689;28;4150;-68
2023/05/23 05:53:31;;;;;;;;;;;;;;;22.57;52.09;100636.69;5008431;28;4237;-67
2023/05/23 05:55:57;;;;;;;;;;;;;;;22.57;52.20;100639.56;5028682;28;4189;-67
2023/05/23 05:58:24;;;;;;;;;;;;;;;22.58;52.34;100637.41;5017820;28;4223;-68
2023/05/23 06:00:57;;;;;;;;;;;;;;;22.58;52.21;100631.66;5014162;28;4156;-68
2023/05/23 06:03:24;;;;;;;;;;;;;;;22.57;52.35;100630.91;5010118;28;6479;-68
2023/05/23 06:05:53;;;;;;;;;;;;;;;22.57;52.33;100630.91;5007888;28;4151;-67
2023/05/23 06:08:20;;;;;;;;;;;;;;;22.57;52.21;100630.91;5014444;28;4026;-67
2023/05/23 06:10:47;;;;;;;;;;;;;;;22.56;52.20;100646.78;5006822;28;4530;-68
2023/05/23 06:13:13;;;;;;;;;;;;;;;22.56;52.12;100626.56;5014606;28;4011;-68
2023/05/23 06:15:43;;;;;;;;;;;;;;;22.56;52.40;100635.22;5009589;28;4191;-68
2023/05/23 06:18:10;;;;;;;;;;;;;;;22.56;52.14;100643.88;4996343;28;4117;-67
2023/05/23 06:20:37;;;;;;;;;;;;;;;22.56;52.26;100646.78;5011673;28;5019;-67
2023/05/23 06:23:08;;;;;;;;;;;;;;;22.56;52.33;100649.66;5008358;28;4039;-67
2023/05/23 06:25:34;;;;;;;;;;;;;;;22.56;52.06;100648.91;5005902;28;4020;-68
2023/05/23 06:28:01;;;;;;;;;;;;;;;22.55;52.12;100648.16;5002921;28;4190;-68
2023/05/23 06:30:29;;;;;;;;;;;;;;;22.56;52.05;100652.53;5006374;28;4058;-68
2023/05/23 06:32:55;;;;;;;;;;;;;;;22.56;52.10;100648.91;5005892;28;4088;-67
2023/05/23 06:35:23;;;;;;;;;;;;;;;22.55;52.36;100651.03;5012631;28;6526;-68
2023/05/23 06:37:50;;;;;;;;;;;;;;;22.54;52.23;100666.91;5008797;28;4066;-67
2023/05/23 06:40:17;;;;;;;;;;;;;;;22.56;52.26;100648.91;5016485;28;4122;-68
2023/05/23 06:42:43;;;;;;;;;;;;;;;22.54;52.06;100652.47;5016499;28;4964;-67
2023/05/23 06:45:21;;;;;;;;;;;;;;;22.55;52.13;100650.31;5017130;28;4265;-67
2023/05/23 06:47:48;;;;;;;;;;;;;;;22.53;52.08;100650.97;5011475;28;4170;-67
2023/05/23 06:50:14;;;;;;;;;;;;;;;22.53;52.29;100653.84;5015757;28;4254;-67
2023/05/23 06:52:41;;;;;;;;;;;;;;;22.52;51.93;100652.41;5007166;28;4439;-67
2023/05/23 06:55:08;;;;;;;;;;;;;;;22.53;52.55;100648.09;5016272;28;3982;-67
2023/05/23 06:57:35;;;;;;;;;;;;;;;22.53;52.21;100645.19;5005685;28;4151;-68
2023/05/23 07:00:01;;;;;;;;;;;;;;;22.52;52.33;100652.41;5010147;28;4541;-67
2023/05/23 07:02:28;;;;;;;;;;;;;;;22.53;52.21;100659.63;5010430;28;4465;-67
2023/05/23 07:04:55;;;;;;;;;;;;;;;22.51;52.10;100650.91;5012525;28;4424;-67
2023/05/23 07:07:41;;;;;;;;;;;;;;;22.53;51.82;100656.75;5017297;28;4050;-67
2023/05/23 07:10:08;;;;;;;;;;;;;;;22.53;51.29;100664.66;5017070;28;4560;-67
2023/05/23 07:12:35;;;;;;;;;;;;;;;22.50;51.64;100651.59;5012617;28;4155;-67
2023/05/23 07:15:02;;;;;;;;;;;;;;;22.49;51.07;100653.72;5007498;28;4156;-68
2023/05/23 07:17:30;;;;;;;;;;;;;;;22.49;50.65;100653.72;5018303;28;4053;-68
2023/05/23 07:19:56;;;;;;;;;;;;;;;22.47;50.66;100664.44;5009838;28;4211;-70
2023/05/23 07:22:23;;;;;;;;;;;;;;;21.82;50.10;100659.97;5028378;28;4244;-64
2023/05/23 07:24:50;;;;;;;;;;;;;;;21.48;50.11;100657.97;5015634;28;4090;-65
2023/05/23 07:27:17;;;;;;;;;;;;;;;21.12;50.37;100658.00;5017106;28;4083;-65
2023/05/23 07:29:43;;;;;;;;;;;;;;;21.05;50.12;100658.41;5015861;28;4366;-63
2023/05/23 07:32:10;;;;;;;;;;;;;;;20.99;50.87;100661.06;5023330;28;4003;-66
2023/05/23 07:34:36;;;;;;;;;;;;;;;20.84;51.55;100662.59;5004950;28;3928;-70
2023/05/23 07:37:03;;;;;;;;;;;;;;;20.96;52.47;100662.34;5003413;28;4141;-72
2023/05/23 07:39:37;;;;;;;;;;;;;;;20.87;52.68;100664.91;5005154;28;4220;-71
2023/05/23 07:42:04;;;;;;;;;;;;;;;20.83;51.77;100666.88;5003945;28;4281;-71
2023/05/23 07:44:30;;;;;;;;;;;;;;;20.56;52.50;100656.38;5004538;28;4491;-70
2023/05/23 07:46:57;;;;;;;;;;;;;;;20.74;52.04;100660.06;5008198;28;4239;-69
2023/05/23 07:49:24;;;;;;;;;;;;;;;20.93;51.84;100675.94;5004403;28;4575;-71
2023/05/23 07:51:52;;;;;;;;;;;;;;;21.27;53.36;100667.22;5011198;28;4021;-67
2023/05/23 07:54:18;;;;;;;;;;;;;;;21.28;53.67;100666.56;5004529;28;4054;-66
2023/05/23 07:56:47;;;;;;;;;;;;;;;21.55;52.42;100653.19;5003560;28;4125;-66
2023/05/23 07:59:14;;;;;;;;;;;;;;;21.60;52.57;100657.72;5014167;28;4141;-67
2023/05/23 08:01:41;;;;;;;;;;;;;;;21.34;54.51;100661.00;5007799;28;4157;-66
2023/05/23 08:04:11;;;;;;;;;;;;;;;21.27;54.58;100656.44;4984352;28;4306;-67
2023/05/23 08:07:00;;;;;;;;;;;;;;;21.52;53.57;100660.28;5006214;28;4185;-67
2023/05/23 08:09:41;;;;;;;;;;;;;;;21.71;52.89;100661.72;5000412;28;4382;-67
2023/05/23 08:12:10;;;;;;;;;;;;;;;21.82;52.27;100659.97;4994074;28;4036;-67
2023/05/23 08:14:38;;;;;;;;;;;;;;;21.87;52.37;100667.34;5014910;28;4140;-67
2023/05/23 08:17:20;;;;;;;;;;;;;;;21.87;52.63;100673.09;5001558;28;4218;-68
2023/05/23 08:19:47;;;;;;;;;;;;;;;21.93;52.46;100676.22;5003304;28;4224;-67
2023/05/23 08:22:14;;;;;;;;;;;;;;;21.96;52.59;100675.63;5011192;28;4019;-67
2023/05/23 08:24:40;;;;;;;;;;;;;;;22.02;52.27;100678.00;5002854;28;4074;-67
2023/05/23 08:27:06;;;;;;;;;;;;;;;22.05;52.07;100682.44;4999861;28;4048;-66
2023/05/23 08:29:34;;;;;;;;;;;;;;;22.13;52.21;100682.00;5002982;28;4483;-66
2023/05/23 08:32:01;;;;;;;;;;;;;;;22.16;52.16;100687.16;5003754;28;4255;-66
2023/05/23 08:34:28;;;;;;;;;;;;;;;22.16;52.04;100687.16;5002559;28;4047;-66
2023/05/23 08:36:54;;;;;;;;;;;;;;;22.19;51.59;100696.63;5001604;28;4174;-65
2023/05/23 08:39:20;;;;;;;;;;;;;;;22.20;51.77;100692.34;5014085;28;4177;-65
2023/05/23 08:41:54;;;;;;;;;;;;;;;22.21;51.49;100693.09;5005369;28;4088;-65
2023/05/23 08:44:20;;;;;;;;;;;;;;;22.23;51.55;100707.63;5006595;28;4382;-66
2023/05/23 08:46:52;;;;;;;;;;;;;;;22.21;51.60;100696.72;5009316;28;4130;-66
2023/05/23 08:49:37;;;;;;;;;;;;;;;22.27;51.56;100702.00;5003912;28;4582;-66
2023/05/23 08:52:04;;;;;;;;;;;;;;;22.26;51.82;100694.72;5003635;28;4155;-66
2023/05/23 08:54:34;;;;;;;;;;;;;;;22.28;51.71;100704.19;4996960;28;4123;-66
2023/05/23 08:57:01;;;;;;;;;;;;;;;22.28;52.04;100698.44;5003320;28;4757;-66
2023/05/23 08:59:29;;;;;;;;;;;;;;;22.30;51.68;100706.41;5000187;28;4866;-65
2023/05/23 09:01:56;;;;;;;;;;;;;;;22.30;51.77;100712.94;5004154;28;4150;-65
2023/05/23 09:04:22;;;;;;;;;;;;;;;22.27;51.72;100707.75;5012517;28;4224;-66
2023/05/23 09:06:58;;;;;;;;;;;;;;;22.31;52.02;100707.88;5006106;28;4195;-66
2023/05/23 09:09:25;;;;;;;;;;;;;;;22.35;51.89;100719.59;5016887;28;4003;-66
2023/05/23 09:11:51;;;;;;;;;;;;;;;22.35;51.76;100714.53;5009807;28;4293;-66
2023/05/23 09:14:18;;;;;;;;;;;;;;;22.35;51.55;100713.81;4988075;28;4041;-66
2023/05/23 09:16:47;;;;;;;;;;;;;;;22.37;51.60;100713.88;5007275;28;4184;-66
2023/05/23 09:19:16;;;;;;;;;;;;;;;22.37;51.61;100722.53;5013703;28;4280;-66
2023/05/23 09:21:52;;;;;;;;;;;;;;;22.36;51.89;100721.06;4997520;28;4188;-66
2023/05/23 09:24:33;;;;;;;;;;;;;;;22.34;52.30;100724.63;5006159;28;4147;-66
2023/05/23 09:27:01;;;;;;;;;;;;;;;22.37;51.90;100720.38;5005909;28;4445;-66
2023/05/23 09:29:28;;;;;;;;;;;;;;;22.40;52.18;100726.97;5018060;28;4007;-67
2023/05/23 09:32:10;;;;;;;;;;;;;;;22.39;52.03;100725.50;5011749;28;4339;-66
2023/05/23 09:34:54;;;;;;;;;;;;;;;22.40;52.17;100721.19;5010351;28;4163;-66
2023/05/23 09:37:44;;;;;;;;;;;;;;;22.40;51.82;100721.19;5009859;28;4181;-66
2023/05/23 09:40:12;;;;;;;;;;;;;;;22.40;52.06;100726.97;5002657;28;4139;-66
2023/05/23 09:42:46;;;;;;;;;;;;;;;22.43;51.86;100731.44;5011382;28;4016;-66
2023/05/23 09:45:14;;;;;;;;;;;;;;;22.39;52.49;100719.72;5006536;28;4880;-66
2023/05/23 09:47:50;;;;;;;;;;;;;;;22.46;52.36;100721.41;5014039;28;4961;-66
2023/05/23 09:50:17;;;;;;;;;;;;;;;22.45;52.47;100728.63;5005381;28;6325;-67
2023/05/23 09:52:43;;;;;;;;;;;;;;;22.46;52.44;100724.31;5009860;28;4830;-66
2023/05/23 09:55:10;;;;;;;;;;;;;;;22.46;52.37;100732.97;5004199;28;3900;-66
2023/05/23 09:57:38;;;;;;;;;;;;;;;22.47;53.03;100731.56;5008708;28;4039;-67
2023/05/23 10:00:05;;;;;;;;;;;;;;;22.47;52.61;100739.47;5008323;28;4123;-66
2023/05/23 10:02:49;;;;;;;;;;;;;;;22.44;53.01;100735.78;5006560;28;5490;-67
2023/05/23 10:05:21;;;;;;;;;;;;;;;22.41;52.89;100740.00;5002632;28;3970;-67
2023/05/23 10:07:47;;;;;;;;;;;;;;;22.39;52.78;100739.94;5005344;28;4205;-67
2023/05/23 10:10:14;;;;;;;;;;;;;;;22.42;52.90;100738.59;5012001;28;4241;-74
2023/05/23 10:12:46;;;;;;;;;;;;;;;22.41;52.51;100740.00;5012180;28;4094;-70
2023/05/23 10:15:12;;;;;;;;;;;;;;;22.46;52.46;100752.44;5021549;28;5435;-67
2023/05/23 10:17:51;;;;;;;;;;;;;;;22.44;53.39;100755.97;5003155;28;4482;-67
2023/05/23 10:20:18;;;;;;;;;;;;;;;22.48;53.00;100741.69;5009347;28;4035;-66
2023/05/23 10:22:44;;;;;;;;;;;;;;;22.48;53.17;100744.59;5003936;28;4197;-67
2023/05/23 10:25:10;;;;;;;;;;;;;;;22.50;52.96;100753.31;5008629;28;4127;-68
2023/05/23 10:27:37;;;;;;;;;;;;;;;22.47;53.26;100754.66;5007221;28;4203;-66
2023/05/23 10:30:05;;;;;;;;;;;;;;;22.45;53.34;100757.47;5010054;28;4626;-66
2023/05/23 10:32:31;;;;;;;;;;;;;;;22.45;54.04;100763.25;5015861;28;4103;-66
2023/05/23 10:34:58;;;;;;;;;;;;;;;22.40;54.75;100755.09;5010033;28;4475;-66
2023/05/23 10:37:28;;;;;;;;;;;;;;;22.36;55.22;100762.19;5013319;28;4140;-65
2023/05/23 10:39:59;;;;;;;;;;;;;;;22.31;55.76;100760.56;5011046;28;4163;-73
2023/05/23 10:42:35;;;;;;;;;;;;;;;22.32;56.00;100761.31;5005423;28;3996;-75
2023/05/23 10:45:17;;;;;;;;;;;;;;;22.27;55.59;100753.91;5005980;28;4364;-73
2023/05/23 10:47:45;;;;;;;;;;;;;;;22.26;56.00;100758.19;5003176;28;4441;-74
2023/05/23 10:50:12;;;;;;;;;;;;;;;22.30;55.57;100764.13;5008697;28;4197;-74
2023/05/23 10:52:39;;;;;;;;;;;;;;;22.33;55.13;100759.88;5010064;28;4113;-74
2023/05/23 10:55:13;;;;;;;;;;;;;;;22.40;54.21;100761.59;5010239;28;4150;-74
2023/05/23 10:57:42;;;;;;;;;;;;;;;22.43;54.14;100768.94;5011258;28;4020;-74
2023/05/23 11:00:14;;;;;;;;;;;;;;;22.42;54.00;100764.56;5010477;28;4156;-74
2023/05/23 11:02:46;;;;;;;;;;;;;;;22.42;54.16;100766.69;5012136;28;4335;-74
2023/05/23 11:05:22;;;;;;;;;;;;;;;22.43;53.72;100765.31;5012803;28;4505;-74
2023/05/23 11:08:07;;;;;;;;;;;;;;;22.45;53.67;100762.47;5013257;28;4396;-73
2023/05/23 11:10:50;;;;;;;;;;;;;;;22.44;53.67;100770.41;5013796;28;3891;-74
2023/05/23 11:13:16;;;;;;;;;;;;;;;22.46;53.37;100769.75;5013712;28;4239;-73
2023/05/23 11:15:44;;;;;;;;;;;;;;;22.46;53.58;100761.09;5014466;28;4046;-73
2023/05/23 11:18:18;;;;;;;;;;;;;;;22.46;53.38;100770.47;5007831;28;4035;-76
2023/05/23 11:20:46;;;;;;;;;;;;;;;22.47;53.18;100777.75;5017164;28;3882;-76
2023/05/23 11:23:12;;;;;;;;;;;;;;;22.47;53.00;100777.75;5010777;28;4039;-75
2023/05/23 11:25:40;;;;;;;;;;;;;;;22.47;53.22;100777.75;5007193;28;4202;-77
2023/05/23 11:28:07;;;;;;;;;;;;;;;22.45;53.39;100769.00;5010359;28;4071;-75
2023/05/23 11:30:35;;;;;;;;;;;;;;;22.44;53.47;100773.28;5006794;28;4171;-75
2023/05/23 11:33:06;;;;;;;;;;;;;;;22.49;53.34;100780.66;5008691;28;4470;-76
2023/05/23 11:35:33;;;;;;;;;;;;;;;22.49;53.47;100777.78;5003244;28;4094;-76
2023/05/23 11:37:59;;;;;;;;;;;;;;;22.49;53.51;100774.91;5009737;28;4505;-74
2023/05/23 11:40:26;;;;;;;;;;;;;;;22.50;53.56;100769.91;5007401;28;4033;-71
2023/05/23 11:42:53;;;;;;;;;;;;;;;22.41;53.55;100782.53;5007829;28;4209;-71
2023/05/23 11:45:20;;;;;;;;;;;;;;;22.26;54.43;100787.78;5003966;28;4013;-74
2023/05/23 11:47:47;;;;;;;;;;;;;;;22.27;54.54;100788.53;5005399;28;4017;-74
2023/05/23 11:50:14;;;;;;;;;;;;;;;22.35;54.29;100795.31;5007511;28;4407;-74
2023/05/23 11:52:41;;;;;;;;;;;;;;;22.43;53.22;100788.41;5006655;28;4088;-75
2023/05/23 11:55:07;;;;;;;;;;;;;;;22.46;53.33;100784.91;5005570;28;4141;-74
2023/05/23 11:57:37;;;;;;;;;;;;;;;22.48;53.30;100790.75;5009363;28;4346;-74
2023/05/23 12:00:07;;;;;;;;;;;;;;;22.48;53.49;100793.63;5004510;28;4026;-74
2023/05/23 12:02:37;;;;;;;;;;;;;;;22.53;53.63;100785.88;5013680;28;4132;-75
2023/05/23 12:05:10;;;;;;;;;;;;;;;22.54;53.19;100796.75;4999415;28;4241;-75
2023/05/23 12:07:54;;;;;;;;;;;;;;;22.51;53.21;100795.19;5007003;28;4085;-75
2023/05/23 12:10:21;;;;;;;;;;;;;;;22.50;53.34;100787.94;5005751;28;4493;-74
2023/05/23 12:12:48;;;;;;;;;;;;;;;22.51;53.32;100788.69;5003975;28;4044;-74
2023/05/23 12:15:14;;;;;;;;;;;;;;;22.51;53.28;100789.41;5010747;28;4128;-76
2023/05/23 12:17:47;;;;;;;;;;;;;;;22.51;53.60;100795.19;5013595;28;3881;-74
2023/05/23 12:20:13;;;;;;;;;;;;;;;22.51;53.75;100795.19;5004302;28;4596;-75
2023/05/23 12:22:40;;;;;;;;;;;;;;;22.52;53.50;100788.03;5010041;28;4078;-76
2023/05/23 12:25:07;;;;;;;;;;;;;;;22.53;53.50;100798.13;5007828;28;4721;-75
2023/05/23 12:27:34;;;;;;;;;;;;;;;22.53;53.20;100795.25;5005521;28;4133;-75
2023/05/23 12:30:08;;;;;;;;;;;;;;;22.56;53.28;100796.81;5004082;28;4057;-75
2023/05/23 12:32:36;;;;;;;;;;;;;;;22.57;53.55;100798.28;5008761;28;3943;-75
2023/05/23 12:35:02;;;;;;;;;;;;;;;22.55;53.35;100800.38;5006607;28;4174;-75
2023/05/23 12:37:29;;;;;;;;;;;;;;;22.58;53.37;100802.66;5004750;28;3929;-75
2023/05/23 12:39:56;;;;;;;;;;;;;;;22.58;53.60;100802.66;5009957;28;4043;-76
2023/05/23 12:42:22;;;;;;;;;;;;;;;22.55;53.75;100801.09;5004438;28;4157;-77
2023/05/23 12:44:50;;;;;;;;;;;;;;;22.57;53.49;100804.06;5004873;28;4782;-87
2023/05/23 12:47:17;;;;;;;;;;;;;;;22.57;53.58;100812.00;5005928;28;4156;-76
2023/05/23 12:49:45;;;;;;;;;;;;;;;22.61;53.52;100802.72;5020124;28;4115;-76
2023/05/23 12:52:11;;;;;;;;;;;;;;;22.59;53.46;100806.28;5003332;28;4135;-81
2023/05/23 12:54:38;;;;;;;;;;;;;;;22.61;53.65;100802.72;5013565;28;4056;-79